KCLW/CLW METAR and TAF weather

Enter ICAO airport designator
Station Type Date Time Source
KCLW METAR 2024/04/18 07:55 UTC NOAA

KCLW 180755Z AUTO 00000KT 10SM CLR 20/18 A3004 RMK AO2


Station Type Date Time Source
KCLW Decoded METAR 2024/04/18 07:55 UTC NOAA

Station name not available
Apr 18, 2024 - 03:55 AM EDT / 2024.04.18 0755 UTC
Wind: Calm:0
Visibility: 10 mile(s):0
Sky conditions: clear
Temperature: 68 F (20 C)
Dew Point: 64 F (18 C)
Relative Humidity: 88%
Pressure (altimeter): 30.04 in. Hg (1017 hPa)
ob: KCLW 180755Z AUTO 00000KT 10SM CLR 20/18 A3004 RMK AO2
cycle: 8

Station Type Date Time Source
KCLW TAF UTC NOAA

Error!

Example: see airport list